Impacts METAR Board
IDs:

KLAX - Los Angeles Intl, CA, US

Updated at: 2100 UTC 20 Jun 2019
Potential Impact None Slight Moderate High
Time 20/09Z 20/10Z 20/11Z 20/12Z 20/13Z 20/14Z 20/15Z 20/16Z 20/17Z 20/18Z 20/19Z 20/20Z 20/21Z
Temp64 64 64 64 64 64 65 66 66 66 66 68 68
Dewpt57 57 58 58 58 58 58 58 58 58 58 57 58
Altim29.96 29.95 29.95 29.94 29.95 29.95 29.96 29.97 29.97 29.97 29.98 29.97 29.96
VIS10 10 10 9 8 8 8 8 8 8 8 8 8
CIG15 15 14 11 12 24 25 17 26 27 22 27 24
CoverOVCOVCOVCOVCOVCOVCOVCOVCOVCOVCOVCOVCOVC
FltCatMVFRMVFRMVFRMVFRMVFRMVFRMVFRMVFRMVFRMVFRMVFRMVFRMVFR
WX--------------------------
WDir250310290280270320270240260250250260240
WSpd5 4 3 5 6 6 6 6 4 6 8 9 7
WGst-- -- -- -- -- -- -- -- -- -- -- -- --
Raw hourly METARs
KLAX 200853Z 25005KT 10SM OVC015 18/14 A2996 RMK AO2 SLP144 T01780139 58006
KLAX 200953Z 31004KT 10SM OVC015 18/14 A2995 RMK AO2 SLP140 T01780139
KLAX 201053Z 29003KT 10SM OVC014 18/14 A2995 RMK AO2 SLP138 T01780144
KLAX 201153Z 28005KT 9SM FEW008 BKN011 OVC014 18/14 A2994 RMK AO2 SLP137 T01780144 10183 20178 56007
KLAX 201253Z 27006KT 8SM FEW008 BKN012 OVC015 18/14 A2995 RMK AO2 SLP138 T01780144
KLAX 201353Z 32006KT 8SM SCT011 OVC024 18/14 A2995 RMK AO2 SLP139 T01780144
KLAX 201453Z 27006KT 8SM SCT010 OVC025 18/14 A2996 RMK AO2 SLP143 T01830144 53006
KLAX 201553Z 24006KT 8SM BKN017 OVC026 19/14 A2997 RMK AO2 SLP146 T01890144
KLAX 201653Z 26004KT 8SM SCT017 OVC026 19/14 A2997 RMK AO2 SLP146 T01890144
KLAX 201753Z 25006KT 8SM SCT018 OVC027 19/14 A2997 RMK AO2 SLP148 T01890144 10189 20178 51005
KLAX 201853Z 25008KT 8SM SCT017 OVC022 19/14 A2998 RMK AO2 SLP151 T01890144
KLAX 201953Z 26009KT 8SM SCT022 BKN027 OVC032 20/14 A2997 RMK AO2 SLP148 T02000139
KLAX 202053Z 24007KT 8SM SCT018 BKN024 OVC031 20/14 A2996 RMK AO2 SLP144 T02000144 56006



Page loaded:  21:51 UTC  |   02:51 PM Pacific  |   03:51 PM Mountain  |   04:51 PM Central  |   05:51 PM Eastern

 

ADVISORIES

FORECASTS

FORECASTS

OBSERVATIONS

USER TOOLS

ABOUT US